Terminal Aerodrome Forecast
Issued by NWS

Home | Current Version | Previous Version | Text Only | Print | Product List | Glossary On
Versions: 1 2 3 4 5 6 7 8 9 10 11 12 13
000
FTUS45 KRIW 192324
TAFJAC
TAF
KJAC 192324Z 2000/2024 23009KT P6SM FEW110 SCT200
      TEMPO 2000/2001 24010G19KT
     FM200500 36006KT P6SM SCT200
     FM201900 21010G18KT P6SM SCT110
      AMD LTD TO CLD VIS AND WIND=

USA.gov is the U.S. government's official web portal to all federal, state and local government web resources and services.